Time;durP1;ratioP1;P1;durP2;ratioP2;P2;SDS_P1;SDS_P2;PMS_P1;PMS_P2;Temp;Humidity;BMP_temperature;BMP_pressure;BME280_temperature;BME280_humidity;BME280_pressure;Samples;Min_cycle;Max_cycle;Signal;HPM_P1;HPM_P2
2021/01/02 06:13:29;;;;;;;4.57;0.55;;;10.50;99.90;;;;;;4681647;29;19952;-74
2021/01/02 06:15:57;;;;;;;3.00;0.80;;;10.50;99.90;;;;;;4767599;30;20062;-75
2021/01/02 06:18:25;;;;;;;2.75;0.90;;;10.50;99.90;;;;;;4782106;30;20096;-76
2021/01/02 06:20:51;;;;;;;1.63;0.43;;;10.50;99.90;;;;;;4768362;30;20619;-82
2021/01/02 06:23:18;;;;;;;4.13;0.50;;;10.50;99.90;;;;;;4784345;30;20077;-79
2021/01/02 06:25:48;;;;;;;2.20;0.60;;;10.50;99.90;;;;;;4784563;30;20038;-74
2021/01/02 06:28:15;;;;;;;0.88;0.30;;;10.50;99.90;;;;;;4768601;30;20512;-75
2021/01/02 06:30:42;;;;;;;1.63;0.60;;;10.50;99.90;;;;;;4784216;30;20064;-76
2021/01/02 06:33:15;;;;;;;1.00;0.50;;;10.50;99.90;;;;;;4783461;30;20132;-81
2021/01/02 06:35:42;;;;;;;1.55;0.38;;;10.60;99.90;;;;;;4784200;30;20447;-81
2021/01/02 06:38:12;;;;;;;2.63;0.60;;;10.60;99.90;;;;;;4784422;29;20055;-80
2021/01/02 06:40:46;;;;;;;2.85;0.90;;;10.60;99.90;;;;;;4784481;29;20032;-81
2021/01/02 06:43:36;;;;;;;5.45;0.60;;;10.70;99.90;;;;;;4784503;29;20435;-75
2021/01/02 06:46:03;;;;;;;1.77;0.50;;;10.80;99.90;;;;;;4784660;30;20039;-79
2021/01/02 06:48:31;;;;;;;2.13;0.57;;;10.80;99.90;;;;;;4768342;30;20036;-75
2021/01/02 06:51:03;;;;;;;3.35;0.70;;;10.90;99.90;;;;;;4784315;30;20435;-81
2021/01/02 06:53:34;;;;;;;4.35;0.98;;;11.00;99.90;;;;;;4783678;30;20398;-75
2021/01/02 06:56:14;;;;;;;3.10;0.77;;;11.00;99.90;;;;;;4783689;29;20043;-79
2021/01/02 06:58:43;;;;;;;2.63;0.80;;;11.20;99.90;;;;;;4783064;30;20513;-80
2021/01/02 07:01:29;;;;;;;7.18;1.42;;;11.20;99.90;;;;;;4784492;29;20099;-74
2021/01/02 07:03:58;;;;;;;1.92;0.40;;;11.30;99.90;;;;;;4783844;30;20024;-75
2021/01/02 07:06:25;;;;;;;1.52;0.50;;;11.40;99.90;;;;;;4782498;30;20031;-88
2021/01/02 07:09:14;;;;;;;1.08;0.45;;;11.50;99.90;;;;;;4768655;30;20464;-76
2021/01/02 07:11:45;;;;;;;2.13;0.75;;;11.60;99.90;;;;;;4784537;29;20123;-75
2021/01/02 07:14:17;;;;;;;4.25;1.02;;;11.60;99.90;;;;;;4787796;30;20047;-85
2021/01/02 07:16:50;;;;;;;2.85;0.68;;;11.70;99.90;;;;;;4774734;30;20440;-74
2021/01/02 07:22:07;;;;;;;3.78;1.13;;;11.90;99.90;;;;;;4784170;30;20051;-79
2021/01/02 07:24:44;;;;;;;3.85;0.70;;;12.00;99.90;;;;;;4786833;30;20035;-82
2021/01/02 07:27:15;;;;;;;2.05;0.85;;;12.00;99.90;;;;;;4787242;30;20039;-80
2021/01/02 07:29:44;;;;;;;2.58;0.70;;;12.10;99.90;;;;;;4787798;30;20043;-80
2021/01/02 07:32:12;;;;;;;4.32;0.80;;;12.20;99.90;;;;;;4787295;30;20039;-75
2021/01/02 07:34:44;;;;;;;3.63;1.20;;;12.20;99.90;;;;;;4787589;30;20088;-75
2021/01/02 07:37:12;;;;;;;2.20;0.95;;;12.30;99.90;;;;;;4786582;29;20461;-75
2021/01/02 07:39:39;;;;;;;4.38;0.90;;;12.40;99.90;;;;;;4787667;29;20543;-75
2021/01/02 07:42:12;;;;;;;2.17;0.82;;;12.40;99.90;;;;;;4787460;30;20039;-74
2021/01/02 07:44:39;;;;;;;;;;;12.50;99.90;;;;;;4787623;29;20471;-83
2021/01/02 07:47:08;;;;;;;4.78;0.70;;;12.50;99.90;;;;;;4787170;29;19917;-75
2021/01/02 07:49:34;;;;;;;6.95;0.82;;;12.60;99.90;;;;;;4769384;30;20179;-75
2021/01/02 07:52:01;;;;;;;4.47;1.42;;;12.60;99.90;;;;;;4769878;30;20483;-86
2021/01/02 07:54:45;;;;;;;4.68;0.80;;;12.60;99.90;;;;;;4769709;30;20111;-80
2021/01/02 07:57:11;;;;;;;1.42;0.93;;;12.60;99.90;;;;;;4769934;30;20039;-75
2021/01/02 07:59:39;;;;;;;3.13;0.80;;;12.60;99.90;;;;;;4786586;30;20032;-83
2021/01/02 08:02:08;;;;;;;2.42;0.77;;;12.70;99.90;;;;;;4787624;30;20040;-88
2021/01/02 08:04:35;;;;;;;3.72;0.90;;;12.70;99.90;;;;;;4787386;29;20091;-82
2021/01/02 08:07:06;;;;;;;5.30;1.30;;;12.80;99.90;;;;;;4786844;29;20098;-82
2021/01/02 08:09:34;;;;;;;6.63;0.80;;;12.80;99.90;;;;;;4786002;30;20382;-82
2021/01/02 08:12:07;;;;;;;2.53;0.75;;;12.80;99.90;;;;;;4786387;30;20031;-76
2021/01/02 08:14:36;;;;;;;4.57;1.10;;;12.80;99.90;;;;;;4786753;30;20074;-82
2021/01/02 08:17:10;;;;;;;2.97;1.08;;;12.80;99.90;;;;;;4770020;30;20047;-79
2021/01/02 08:19:55;;;;;;;4.22;1.20;;;12.80;99.90;;;;;;4781848;30;20039;-82
2021/01/02 08:22:35;;;;;;;5.47;1.58;;;12.90;99.90;;;;;;4784757;30;20092;-84
2021/01/02 08:25:10;;;;;;;4.55;1.10;;;13.10;99.90;;;;;;4785481;29;20046;-82
2021/01/02 08:27:37;;;;;;;1.45;0.70;;;13.20;99.90;;;;;;4786483;30;20179;-81
2021/01/02 08:30:09;;;;;;;4.05;1.40;;;13.20;99.90;;;;;;4786330;30;20059;-83
2021/01/02 08:33:01;;;;;;;4.70;1.17;;;13.30;99.90;;;;;;4786520;30;20046;-83
2021/01/02 08:35:39;;;;;;;3.88;0.80;;;13.40;99.90;;;;;;4783420;30;20047;-83
2021/01/02 08:38:12;;;;;;;3.00;0.85;;;13.40;99.90;;;;;;4770516;30;20054;-83
2021/01/02 08:40:40;;;;;;;3.83;0.90;;;13.60;99.90;;;;;;4786144;30;20027;-82
2021/01/02 08:43:06;;;;;;;3.30;1.58;;;13.60;99.90;;;;;;4770247;30;20032;-83
2021/01/02 08:45:33;;;;;;;2.03;0.82;;;13.70;99.90;;;;;;4786265;30;20089;-83
2021/01/02 08:48:07;;;;;;;7.47;1.20;;;13.70;99.90;;;;;;4785805;30;20027;-83
2021/01/02 08:50:34;;;;;;;2.92;1.25;;;13.80;99.90;;;;;;4779621;30;20035;-76
2021/01/02 08:53:01;;;;;;;3.15;0.90;;;13.80;99.90;;;;;;4785308;30;20031;-83
2021/01/02 08:55:30;;;;;;;7.43;1.05;;;14.00;99.90;;;;;;4786166;30;20131;-82
2021/01/02 08:57:56;;;;;;;2.95;0.98;;;14.00;99.90;;;;;;4784856;30;20039;-78
2021/01/02 09:00:24;;;;;;;6.68;1.48;;;14.10;99.90;;;;;;4785628;30;20494;-81
2021/01/02 09:03:02;;;;;;;5.95;0.98;;;14.20;99.90;;;;;;4785960;30;20038;-82
2021/01/02 09:05:34;;;;;;;3.53;1.27;;;14.20;99.90;;;;;;4785627;30;20035;-85
2021/01/02 09:08:02;;;;;;;2.05;1.00;;;14.30;99.90;;;;;;4785960;30;20058;-83
2021/01/02 09:10:29;;;;;;;2.38;1.10;;;14.40;99.90;;;;;;4768740;30;20088;-86
2021/01/02 09:13:23;;;;;;;2.55;1.02;;;14.40;99.90;;;;;;4770539;30;20108;-86
2021/01/02 09:16:15;;;;;;;4.68;0.93;;;14.40;99.90;;;;;;4759607;30;20069;-83
2021/01/02 09:18:43;;;;;;;5.40;1.30;;;14.40;99.90;;;;;;4751191;30;20074;-82
2021/01/02 09:21:09;;;;;;;2.22;0.90;;;14.40;99.90;;;;;;4760407;30;20032;-77
2021/01/02 09:23:36;;;;;;;2.38;1.00;;;14.50;99.90;;;;;;4773798;30;20430;-85
2021/01/02 09:26:35;;;;;;;6.60;1.27;;;14.60;99.90;;;;;;4782482;30;20039;-80
2021/01/02 09:29:22;;;;;;;7.38;1.20;;;14.80;99.90;;;;;;4768814;30;20082;-86
2021/01/02 09:31:48;;;;;;;2.95;1.52;;;14.90;99.90;;;;;;4777030;30;20074;-86
2021/01/02 09:34:14;;;;;;;5.78;1.42;;;14.90;99.90;;;;;;4800400;29;20538;-84
2021/01/02 09:36:40;;;;;;;3.83;1.02;;;14.90;99.90;;;;;;4785993;29;20042;-85
2021/01/02 09:39:07;;;;;;;4.43;1.45;;;15.00;99.90;;;;;;4786765;29;20039;-84
2021/01/02 09:41:34;;;;;;;10.35;1.55;;;15.20;99.90;;;;;;4793834;29;20027;-84
2021/01/02 09:44:00;;;;;;;4.63;0.90;;;15.00;99.90;;;;;;4786153;30;20066;-84
2021/01/02 09:46:28;;;;;;;4.97;1.10;;;14.80;99.90;;;;;;4770346;29;20091;-74
2021/01/02 09:48:57;;;;;;;8.07;1.20;;;14.60;99.90;;;;;;4769189;30;20051;-84
2021/01/02 09:51:23;;;;;;;2.70;1.10;;;14.50;99.90;;;;;;4752398;30;20027;-78
2021/01/02 09:53:51;;;;;;;2.60;1.23;;;14.50;99.90;;;;;;4785251;30;20067;-84
2021/01/02 09:56:18;;;;;;;5.32;1.65;;;14.40;99.90;;;;;;4772224;29;20101;-80
2021/01/02 09:58:44;;;;;;;3.50;1.58;;;14.30;99.90;;;;;;4781480;30;20093;-82
2021/01/02 10:01:15;;;;;;;2.35;1.00;;;14.20;99.90;;;;;;4768154;30;20032;-86
2021/01/02 10:03:41;;;;;;;7.53;1.60;;;14.20;99.90;;;;;;4770292;30;20056;-76
2021/01/02 10:06:07;;;;;;;4.82;1.40;;;14.40;99.90;;;;;;4768517;30;20054;-85
2021/01/02 10:08:33;;;;;;;5.00;1.85;;;14.60;99.90;;;;;;4767711;30;20102;-84
2021/01/02 10:11:01;;;;;;;2.53;0.90;;;14.80;99.90;;;;;;4766802;30;20064;-75
2021/01/02 10:13:27;;;;;;;2.00;0.98;;;15.10;99.90;;;;;;4769889;30;20062;-84
2021/01/02 10:15:54;;;;;;;4.60;1.23;;;15.30;99.90;;;;;;4800158;29;20123;-83
2021/01/02 10:18:20;;;;;;;4.78;1.65;;;15.50;99.90;;;;;;4787405;29;20050;-85
2021/01/02 10:20:46;;;;;;;3.50;0.60;;;15.60;99.90;;;;;;4799614;29;20035;-83
2021/01/02 10:23:12;;;;;;;4.35;1.52;;;15.70;99.90;;;;;;4802974;29;20055;-83
2021/01/02 10:25:38;;;;;;;2.55;1.27;;;15.90;99.90;;;;;;4803339;29;20060;-81
2021/01/02 10:28:04;;;;;;;5.45;1.20;;;16.00;99.90;;;;;;4802881;29;20070;-84
2021/01/02 10:30:31;;;;;;;3.55;0.70;;;16.20;99.80;;;;;;4799338;29;20039;-82
2021/01/02 10:32:57;;;;;;;6.03;0.80;;;16.40;99.70;;;;;;4802756;29;20114;-82
2021/01/02 10:35:23;;;;;;;1.83;0.80;;;16.60;99.80;;;;;;4787217;29;20493;-82
2021/01/02 10:37:49;;;;;;;1.58;0.60;;;16.80;99.90;;;;;;4802862;29;20501;-81
2021/01/02 10:40:17;;;;;;;3.30;1.50;;;16.80;99.70;;;;;;4787272;29;20439;-83
2021/01/02 10:42:44;;;;;;;3.83;1.00;;;16.60;98.20;;;;;;4803160;29;20030;-83
2021/01/02 10:45:15;;;;;;;4.40;1.08;;;16.50;98.70;;;;;;4803074;29;20027;-85
2021/01/02 10:47:42;;;;;;;1.65;0.57;;;16.50;98.50;;;;;;4804088;29;20431;-82
2021/01/02 10:50:09;;;;;;;5.55;0.90;;;16.50;98.60;;;;;;4774632;29;20473;-81
2021/01/02 10:52:35;;;;;;;3.00;1.05;;;16.50;97.90;;;;;;4806471;29;20083;-83
2021/01/02 10:55:01;;;;;;;3.35;0.98;;;16.10;98.50;;;;;;4806523;29;20122;-83
2021/01/02 10:57:27;;;;;;;1.95;0.75;;;15.80;98.80;;;;;;4806891;29;20035;-81
2021/01/02 10:59:55;;;;;;;6.85;1.25;;;15.60;99.60;;;;;;4806629;29;20034;-74
2021/01/02 11:02:22;;;;;;;4.10;1.05;;;15.50;99.90;;;;;;4805721;29;20094;-84
2021/01/02 11:04:49;;;;;;;4.50;1.27;;;15.30;99.90;;;;;;4806644;29;20030;-84
2021/01/02 11:07:17;;;;;;;0.70;0.50;;;15.30;99.90;;;;;;4806818;29;20109;-82
2021/01/02 11:09:44;;;;;;;1.63;0.60;;;15.20;99.70;;;;;;4806763;29;20131;-84
2021/01/02 11:12:11;;;;;;;4.35;1.90;;;15.20;99.90;;;;;;4806667;29;20494;-76
2021/01/02 11:14:40;;;;;;;6.93;0.93;;;15.30;99.50;;;;;;4806248;29;20466;-84
2021/01/02 11:17:07;;;;;;;0.98;0.80;;;15.30;99.90;;;;;;4806537;29;20047;-82
2021/01/02 11:19:33;;;;;;;1.15;0.93;;;15.30;99.90;;;;;;4806531;29;20933;-83
2021/01/02 11:22:02;;;;;;;5.65;0.82;;;15.20;99.90;;;;;;4790328;29;20406;-82
2021/01/02 11:24:30;;;;;;;1.83;0.80;;;15.20;99.90;;;;;;4806192;29;20031;-83
2021/01/02 11:26:59;;;;;;;1.77;0.85;;;15.20;99.90;;;;;;4806380;29;20034;-83
2021/01/02 11:29:30;;;;;;;8.60;1.50;;;15.10;99.90;;;;;;4806118;29;20031;-85
2021/01/02 11:32:02;;;;;;;4.13;1.30;;;15.00;99.90;;;;;;4806168;29;20088;-84
2021/01/02 11:34:29;;;;;;;2.13;0.93;;;15.00;99.90;;;;;;4803924;29;20053;-75
2021/01/02 11:36:58;;;;;;;2.55;1.23;;;15.00;99.90;;;;;;4805903;29;20046;-83
2021/01/02 11:39:25;;;;;;;7.03;1.25;;;14.90;99.90;;;;;;4790442;29;20397;-79
2021/01/02 11:41:52;;;;;;;1.67;1.05;;;15.00;99.90;;;;;;4805688;29;20486;-83
2021/01/02 11:44:21;;;;;;;2.88;1.00;;;15.00;99.90;;;;;;4805343;29;20089;-82
2021/01/02 11:46:49;;;;;;;2.90;0.95;;;15.10;99.90;;;;;;4805869;29;20489;-82
2021/01/02 11:49:19;;;;;;;1.20;0.68;;;15.50;99.90;;;;;;4805988;29;20035;-83
2021/01/02 11:51:50;;;;;;;2.97;1.10;;;15.80;99.90;;;;;;4805786;29;20043;-83
2021/01/02 11:54:17;;;;;;;3.95;1.00;;;15.80;99.90;;;;;;4805957;29;20031;-82
2021/01/02 11:56:45;;;;;;;3.55;0.98;;;16.10;99.90;;;;;;4789428;29;20043;-75
2021/01/02 11:59:12;;;;;;;2.25;0.90;;;16.10;99.90;;;;;;4805741;29;20397;-83
2021/01/02 12:01:49;;;;;;;1.50;0.80;;;16.40;99.90;;;;;;4805817;29;20039;-83
2021/01/02 12:04:18;;;;;;;2.83;0.90;;;16.30;99.90;;;;;;4805287;29;20069;-83
2021/01/02 12:06:44;;;;;;;3.58;0.90;;;16.20;99.90;;;;;;4805313;29;20038;-81
2021/01/02 12:09:12;;;;;;;4.35;0.70;;;16.00;99.90;;;;;;4805388;29;20039;-79
2021/01/02 12:11:41;;;;;;;4.93;1.25;;;15.80;99.90;;;;;;4805325;29;20474;-83
2021/01/02 12:14:08;;;;;;;19.42;6.68;;;15.50;99.90;;;;;;4805364;29;20502;-84
2021/01/02 12:16:37;;;;;;;39.47;15.68;;;15.40;99.90;;;;;;4805522;29;20635;-84
2021/01/02 12:19:07;;;;;;;14.18;7.05;;;15.30;99.90;;;;;;4805143;29;20063;-85
2021/01/02 12:21:34;;;;;;;14.63;6.60;;;15.20;99.90;;;;;;4789261;29;20043;-83
2021/01/02 12:24:00;;;;;;;14.10;5.30;;;15.10;99.90;;;;;;4805016;29;20088;-85
2021/01/02 12:26:27;;;;;;;5.43;2.10;;;15.10;99.90;;;;;;4793070;29;20107;-82
2021/01/02 12:28:53;;;;;;;6.70;1.30;;;15.10;99.90;;;;;;4804928;29;20106;-82
2021/01/02 12:31:25;;;;;;;4.63;1.52;;;15.10;99.90;;;;;;4805138;29;20035;-83
2021/01/02 12:33:52;;;;;;;1.40;0.68;;;15.10;99.90;;;;;;4805012;29;20176;-80
2021/01/02 12:36:28;;;;;;;2.22;1.00;;;15.10;99.90;;;;;;4804856;29;20042;-82
2021/01/02 12:38:55;;;;;;;4.40;1.05;;;15.10;99.90;;;;;;4805510;29;20035;-81
2021/01/02 12:41:21;;;;;;;1.70;0.95;;;15.10;99.90;;;;;;4788293;29;20026;-83
2021/01/02 12:43:47;;;;;;;5.20;1.55;;;15.10;99.90;;;;;;4804942;29;20035;-83
2021/01/02 12:46:16;;;;;;;0.95;0.60;;;15.20;99.90;;;;;;4805699;29;20035;-80
2021/01/02 12:48:45;;;;;;;2.67;0.85;;;15.20;99.90;;;;;;4804991;29;20031;-84
2021/01/02 12:51:11;;;;;;;4.00;1.17;;;15.10;99.90;;;;;;4804597;29;20026;-84
2021/01/02 12:53:38;;;;;;;2.60;1.35;;;15.00;99.90;;;;;;4804712;29;20074;-86
2021/01/02 12:56:05;;;;;;;2.17;0.50;;;15.00;99.90;;;;;;4806705;29;20072;-82
2021/01/02 12:58:32;;;;;;;5.82;1.90;;;15.00;99.90;;;;;;4804152;29;20074;-78
2021/01/02 13:00:59;;;;;;;5.80;1.20;;;15.00;99.90;;;;;;4802836;29;20027;-75
2021/01/02 13:03:25;;;;;;;5.38;0.80;;;15.00;99.90;;;;;;4804391;29;20042;-80
2021/01/02 13:05:51;;;;;;;4.50;1.40;;;15.00;99.90;;;;;;4788561;29;20035;-83
2021/01/02 13:08:17;;;;;;;2.42;1.08;;;15.00;99.90;;;;;;4821040;29;20034;-85
2021/01/02 13:10:43;;;;;;;4.93;1.88;;;14.90;99.90;;;;;;4821478;29;20110;-84
2021/01/02 13:13:10;;;;;;;1.85;0.70;;;14.90;99.90;;;;;;4820795;29;20509;-81
2021/01/02 13:15:36;;;;;;;6.70;0.70;;;14.80;99.90;;;;;;4803661;29;20051;-75
2021/01/02 13:18:02;;;;;;;3.90;1.00;;;14.80;99.90;;;;;;4816063;29;20125;-75
2021/01/02 13:20:28;;;;;;;3.20;0.82;;;14.80;99.90;;;;;;4822200;29;20087;-84
2021/01/02 13:22:54;;;;;;;2.53;1.25;;;14.80;99.90;;;;;;4805716;29;20087;-83
2021/01/02 13:25:20;;;;;;;6.00;2.10;;;14.80;99.90;;;;;;4822176;29;20063;-76
2021/01/02 13:27:47;;;;;;;3.70;1.10;;;14.80;99.90;;;;;;4807410;29;20043;-86
2021/01/02 13:30:14;;;;;;;3.42;1.20;;;14.80;99.90;;;;;;4806213;29;20385;-83
2021/01/02 13:32:41;;;;;;;1.55;0.63;;;14.70;99.90;;;;;;4803777;29;20505;-84
2021/01/02 13:35:08;;;;;;;1.77;0.85;;;14.70;99.90;;;;;;4804087;29;20038;-83
2021/01/02 13:37:34;;;;;;;3.17;0.82;;;14.70;99.90;;;;;;4799764;29;20087;-84
2021/01/02 13:40:00;;;;;;;3.17;0.80;;;14.70;99.90;;;;;;4785948;30;20038;-84
2021/01/02 13:42:27;;;;;;;4.13;1.17;;;14.60;99.90;;;;;;4785710;29;20085;-85
2021/01/02 13:44:54;;;;;;;4.03;0.80;;;14.50;99.90;;;;;;4785880;30;20031;-82
2021/01/02 13:47:22;;;;;;;3.80;0.90;;;14.50;99.90;;;;;;4792914;29;20049;-76
2021/01/02 13:49:54;;;;;;;5.20;1.10;;;14.50;99.90;;;;;;4806321;29;20034;-84
2021/01/02 13:52:21;;;;;;;2.45;1.02;;;14.50;99.90;;;;;;4821870;29;20061;-84
2021/01/02 13:54:52;;;;;;;3.42;1.00;;;14.40;99.90;;;;;;4821958;29;20030;-82
2021/01/02 13:57:22;;;;;;;2.53;1.02;;;14.40;99.90;;;;;;4817695;29;20101;-83
2021/01/02 13:59:52;;;;;;;4.45;0.93;;;14.40;99.90;;;;;;4805980;29;20039;-84
2021/01/02 14:02:19;;;;;;;4.15;0.93;;;14.40;99.90;;;;;;4787840;29;20035;-83
2021/01/02 14:04:47;;;;;;;4.47;0.80;;;14.40;99.90;;;;;;4803650;29;20049;-84
2021/01/02 14:07:13;;;;;;;4.57;0.90;;;14.40;99.90;;;;;;4799219;29;20367;-84
2021/01/02 14:09:39;;;;;;;2.22;0.90;;;14.40;99.90;;;;;;4802981;29;20073;-82
2021/01/02 14:12:06;;;;;;;3.28;1.17;;;14.40;99.90;;;;;;4803632;29;20443;-82
2021/01/02 14:14:36;;;;;;;6.53;1.35;;;14.40;99.90;;;;;;4803583;29;20141;-83
2021/01/02 14:17:03;;;;;;;1.40;0.70;;;14.40;99.90;;;;;;4803614;29;20043;-82
2021/01/02 14:19:31;;;;;;;5.22;1.10;;;14.40;99.90;;;;;;4802666;29;20129;-80
2021/01/02 14:21:59;;;;;;;4.57;1.30;;;14.40;99.90;;;;;;4789267;29;20035;-87
2021/01/02 14:24:27;;;;;;;4.15;1.15;;;14.40;99.90;;;;;;4803443;29;20102;-82
2021/01/02 14:26:53;;;;;;;1.92;1.50;;;14.50;99.90;;;;;;4802810;29;20050;-84
2021/01/02 14:29:23;;;;;;;4.55;1.20;;;14.50;99.90;;;;;;4802432;29;20027;-75
2021/01/02 14:31:50;;;;;;;2.03;0.98;;;14.50;99.90;;;;;;4802888;29;20509;-81
2021/01/02 14:34:20;;;;;;;2.58;0.98;;;14.60;99.90;;;;;;4802402;29;20087;-75
2021/01/02 14:37:01;;;;;;;5.93;1.00;;;14.60;99.90;;;;;;4786022;29;20035;-84
2021/01/02 14:39:29;;;;;;;4.82;0.80;;;14.60;99.90;;;;;;4801449;29;20030;-81
2021/01/02 14:42:00;;;;;;;1.85;0.93;;;14.60;99.90;;;;;;4785987;29;20486;-74
2021/01/02 14:44:27;;;;;;;3.03;0.98;;;14.50;99.90;;;;;;4802176;29;20039;-75
2021/01/02 14:46:53;;;;;;;4.55;1.80;;;14.50;99.90;;;;;;4802101;29;20031;-80
2021/01/02 14:49:20;;;;;;;4.25;0.80;;;14.40;99.90;;;;;;4801741;29;20031;-75
2021/01/02 14:51:50;;;;;;;5.07;1.02;;;14.40;99.90;;;;;;4801958;29;20054;-75
2021/01/02 14:54:20;;;;;;;4.10;1.48;;;14.40;99.90;;;;;;4802644;29;20035;-84
2021/01/02 14:57:05;;;;;;;6.00;1.40;;;14.30;99.90;;;;;;4802324;29;20125;-75
2021/01/02 14:59:36;;;;;;;5.45;1.45;;;14.20;99.90;;;;;;4801785;29;20159;-76
2021/01/02 15:02:03;;;;;;;6.82;1.70;;;14.20;99.90;;;;;;4802065;29;20129;-75
2021/01/02 15:04:29;;;;;;;7.82;3.00;;;14.20;99.90;;;;;;4801990;29;20062;-76
2021/01/02 15:06:55;;;;;;;8.05;1.70;;;14.10;99.90;;;;;;4802095;29;20050;-75
2021/01/02 15:09:23;;;;;;;3.25;1.25;;;14.10;99.90;;;;;;4786866;29;20472;-84
2021/01/02 15:11:49;;;;;;;5.40;1.55;;;14.10;99.90;;;;;;4801768;29;20030;-84
2021/01/02 15:14:17;;;;;;;3.22;1.10;;;14.10;99.90;;;;;;4802351;29;20061;-79
2021/01/02 15:16:43;;;;;;;3.13;1.00;;;14.00;99.90;;;;;;4800860;29;20102;-76
2021/01/02 15:19:09;;;;;;;5.43;1.10;;;14.00;99.90;;;;;;4802972;29;20098;-79
2021/01/02 15:21:36;;;;;;;5.43;1.58;;;14.00;99.90;;;;;;4802563;29;20034;-81
2021/01/02 15:24:03;;;;;;;3.42;1.63;;;14.00;99.90;;;;;;4802903;29;20035;-84
2021/01/02 15:26:31;;;;;;;5.18;1.60;;;13.90;99.90;;;;;;4803013;29;20095;-83
2021/01/02 15:29:00;;;;;;;3.47;1.30;;;14.00;99.90;;;;;;4802552;29;20039;-82
2021/01/02 15:31:32;;;;;;;6.85;2.13;;;13.90;99.90;;;;;;4785796;29;20385;-78
2021/01/02 15:33:58;;;;;;;6.95;1.15;;;13.90;99.90;;;;;;4804139;29;20046;-79
2021/01/02 15:36:37;;;;;;;4.57;1.63;;;13.90;99.90;;;;;;4805007;29;20042;-84
2021/01/02 15:39:06;;;;;;;5.00;1.20;;;13.90;99.90;;;;;;4806547;29;20564;-83
2021/01/02 15:41:35;;;;;;;5.03;1.05;;;13.90;99.90;;;;;;4806016;29;20039;-83
2021/01/02 15:44:03;;;;;;;11.27;2.13;;;13.90;99.90;;;;;;4806178;29;20030;-85
2021/01/02 15:46:36;;;;;;;4.93;2.05;;;13.90;99.90;;;;;;4790149;29;20070;-85
2021/01/02 15:49:04;;;;;;;6.88;1.98;;;13.90;99.90;;;;;;4806488;29;20051;-85
2021/01/02 15:51:30;;;;;;;3.95;1.70;;;13.80;99.90;;;;;;4805540;29;20042;-84
2021/01/02 15:53:56;;;;;;;5.68;1.50;;;13.80;99.90;;;;;;4806486;29;20379;-85
2021/01/02 15:56:23;;;;;;;3.40;1.65;;;13.80;99.90;;;;;;4806274;29;20427;-85
2021/01/02 15:58:49;;;;;;;6.25;1.52;;;13.80;99.90;;;;;;4805501;29;20122;-84
2021/01/02 16:01:16;;;;;;;6.47;1.88;;;13.90;99.90;;;;;;4805929;29;20038;-82
2021/01/02 16:03:43;;;;;;;4.45;1.45;;;13.80;99.90;;;;;;4805915;29;20042;-85
2021/01/02 16:06:09;;;;;;;6.40;1.98;;;13.80;99.90;;;;;;4805439;29;20026;-82
2021/01/02 16:08:35;;;;;;;6.15;1.90;;;13.70;99.90;;;;;;4805539;29;20039;-83
2021/01/02 16:11:02;;;;;;;5.68;1.75;;;13.80;99.90;;;;;;4805350;29;20058;-74
2021/01/02 16:13:29;;;;;;;4.53;1.60;;;13.80;99.90;;;;;;4805977;29;20141;-84
2021/01/02 16:15:56;;;;;;;3.85;1.40;;;13.80;99.90;;;;;;4805419;29;20057;-84
2021/01/02 16:18:23;;;;;;;5.38;2.80;;;13.90;99.90;;;;;;4789270;29;20055;-84
2021/01/02 16:20:50;;;;;;;7.35;2.35;;;13.80;99.90;;;;;;4784833;29;20023;-83
2021/01/02 16:23:18;;;;;;;3.42;1.58;;;13.90;99.90;;;;;;4804570;29;20038;-77
2021/01/02 16:25:44;;;;;;;8.13;2.50;;;13.80;99.90;;;;;;4804321;29;20031;-76
2021/01/02 16:28:10;;;;;;;7.25;2.42;;;13.80;99.90;;;;;;4804312;29;20393;-74
2021/01/02 16:30:36;;;;;;;9.52;2.47;;;13.80;99.90;;;;;;4804597;29;20027;-75
2021/01/02 16:33:02;;;;;;;8.82;2.28;;;13.80;99.90;;;;;;4804109;29;20046;-76
2021/01/02 16:35:29;;;;;;;4.40;2.20;;;13.80;99.90;;;;;;4819241;29;20142;-85
2021/01/02 16:37:55;;;;;;;8.95;3.45;;;13.70;99.90;;;;;;4818484;29;20051;-80
2021/01/02 16:40:21;;;;;;;5.70;1.80;;;13.80;99.90;;;;;;4818466;29;20046;-75
2021/01/02 16:42:47;;;;;;;5.07;1.90;;;13.80;99.90;;;;;;4802232;29;20482;-75
2021/01/02 16:45:13;;;;;;;8.80;1.90;;;13.80;99.90;;;;;;4802403;29;20031;-83
2021/01/02 16:47:40;;;;;;;8.13;2.92;;;13.80;99.90;;;;;;4803466;29;20027;-75
2021/01/02 16:50:07;;;;;;;9.52;2.38;;;13.90;99.90;;;;;;4787282;29;20643;-74
2021/01/02 16:52:33;;;;;;;5.40;2.70;;;13.90;99.90;;;;;;4802038;29;20117;-75
2021/01/02 16:55:08;;;;;;;5.20;2.35;;;13.90;99.90;;;;;;4802086;29;20363;-84
2021/01/02 16:57:34;;;;;;;9.95;2.63;;;13.90;99.90;;;;;;4804292;29;20070;-75
2021/01/02 17:00:01;;;;;;;11.85;1.98;;;13.90;99.90;;;;;;4804404;29;20023;-77
2021/01/02 17:02:27;;;;;;;17.42;2.80;;;13.90;99.90;;;;;;4803651;29;20079;-78
2021/01/02 17:04:53;;;;;;;5.82;1.80;;;13.90;99.90;;;;;;4801322;29;20034;-84
2021/01/02 17:07:20;;;;;;;9.27;2.17;;;13.90;99.90;;;;;;4794744;29;20046;-84
2021/01/02 17:09:46;;;;;;;13.30;3.25;;;13.90;99.90;;;;;;4805754;29;20127;-75
2021/01/02 17:12:21;;;;;;;8.63;2.00;;;13.90;99.90;;;;;;4789746;29;20065;-75
2021/01/02 17:14:48;;;;;;;10.10;2.30;;;13.90;99.90;;;;;;4801154;29;20055;-79
2021/01/02 17:17:15;;;;;;;8.98;3.13;;;13.90;99.90;;;;;;4803919;29;20050;-75
2021/01/02 17:19:41;;;;;;;14.23;2.92;;;13.90;99.90;;;;;;4803371;29;20026;-77
2021/01/02 17:22:08;;;;;;;19.30;3.95;;;13.90;99.90;;;;;;4802641;29;20416;-77
2021/01/02 17:24:35;;;;;;;9.07;2.78;;;13.90;99.90;;;;;;4803054;29;20505;-76
2021/01/02 17:27:05;;;;;;;9.02;3.70;;;13.90;99.90;;;;;;4803458;29;20088;-76
2021/01/02 17:29:31;;;;;;;13.45;4.00;;;13.90;99.90;;;;;;4802901;29;20027;-76
2021/01/02 17:31:59;;;;;;;8.93;3.15;;;13.80;99.90;;;;;;4803325;29;20034;-83
2021/01/02 17:34:31;;;;;;;9.73;3.33;;;13.90;99.90;;;;;;4832709;24;20201;-72
2021/01/02 17:36:59;;;;;;;6.80;2.75;;;13.90;99.90;;;;;;4839067;29;20504;-72
2021/01/02 17:39:28;;;;;;;12.40;3.60;;;13.80;99.90;;;;;;4839389;29;20030;-74
2021/01/02 17:42:13;;;;;;;5.53;2.90;;;13.80;99.90;;;;;;4839299;29;20033;-74
2021/01/02 17:44:42;;;;;;;7.82;2.83;;;13.80;99.90;;;;;;4838334;29;20037;-74
2021/01/02 17:47:11;;;;;;;7.00;2.17;;;13.90;99.90;;;;;;4822855;29;20493;-74
2021/01/02 17:49:37;;;;;;;10.48;2.95;;;13.90;99.90;;;;;;4820975;29;20113;-74
2021/01/02 17:52:04;;;;;;;7.60;2.70;;;13.90;99.90;;;;;;4821250;29;20026;-73
2021/01/02 17:54:30;;;;;;;10.85;3.25;;;13.90;99.90;;;;;;4827184;29;20026;-73
2021/01/02 17:56:57;;;;;;;9.88;2.90;;;13.90;99.90;;;;;;4837618;29;20045;-74
2021/01/02 17:59:24;;;;;;;7.38;2.50;;;13.90;99.90;;;;;;4839088;29;20030;-74
2021/01/02 18:01:57;;;;;;;4.35;2.20;;;13.90;99.90;;;;;;4838997;29;20030;-74
2021/01/02 18:04:23;;;;;;;6.18;1.95;;;13.90;99.90;;;;;;4822462;29;20041;-75
2021/01/02 18:06:50;;;;;;;8.43;2.33;;;13.90;99.90;;;;;;4838381;29;20030;-75
2021/01/02 18:09:17;;;;;;;11.25;2.28;;;13.90;99.90;;;;;;4838954;29;20523;-74
2021/01/02 18:11:48;;;;;;;10.80;2.50;;;13.90;99.90;;;;;;4838797;29;20489;-74
2021/01/02 18:14:22;;;;;;;9.50;2.10;;;14.00;99.90;;;;;;4838926;29;20116;-77
2021/01/02 18:16:50;;;;;;;9.20;2.55;;;14.00;99.90;;;;;;4836896;29;20052;-75
2021/01/02 18:19:17;;;;;;;10.85;2.55;;;14.00;99.90;;;;;;4838703;29;20034;-75
2021/01/02 18:21:48;;;;;;;11.45;2.80;;;13.90;99.90;;;;;;4838800;29;20044;-73
2021/01/02 18:24:14;;;;;;;7.60;3.03;;;14.00;99.90;;;;;;4838569;29;20038;-74
2021/01/02 18:26:49;;;;;;;15.73;3.85;;;13.90;99.90;;;;;;4838199;29;20098;-75
2021/01/02 18:29:19;;;;;;;7.68;3.85;;;14.00;99.90;;;;;;4838640;29;20044;-74
2021/01/02 18:31:46;;;;;;;6.47;2.60;;;13.90;99.90;;;;;;4838799;29;20025;-73
2021/01/02 18:34:14;;;;;;;6.07;2.35;;;14.00;99.90;;;;;;4822213;29;20058;-75
2021/01/02 18:36:40;;;;;;;12.43;3.88;;;14.00;99.90;;;;;;4837895;29;20128;-73
2021/01/02 18:39:07;;;;;;;10.65;4.00;;;14.00;99.90;;;;;;4838747;29;20476;-73
2021/01/02 18:41:37;;;;;;;9.25;2.63;;;14.00;99.90;;;;;;4838057;29;20454;-74
2021/01/02 18:44:05;;;;;;;5.68;2.67;;;13.90;99.90;;;;;;4838487;29;20531;-73
2021/01/02 18:46:41;;;;;;;16.48;3.58;;;13.90;99.90;;;;;;4838009;29;20470;-74
2021/01/02 18:49:08;;;;;;;12.23;3.45;;;13.90;99.90;;;;;;4838245;29;20030;-74
2021/01/02 18:51:43;;;;;;;6.68;2.80;;;13.80;99.90;;;;;;4838379;29;20912;-75
2021/01/02 18:54:16;;;;;;;9.68;2.80;;;13.90;99.90;;;;;;4838258;29;20090;-75
2021/01/02 18:56:46;;;;;;;7.53;2.15;;;13.90;99.90;;;;;;4838255;29;20073;-74
2021/01/02 18:59:12;;;;;;;11.48;2.53;;;13.90;99.90;;;;;;4838625;29;20090;-73
2021/01/02 19:01:41;;;;;;;14.48;3.00;;;13.90;99.90;;;;;;4838474;29;20034;-73
2021/01/02 19:04:07;;;;;;;9.57;2.50;;;13.90;99.90;;;;;;4838121;29;20030;-73
2021/01/02 19:06:33;;;;;;;7.20;2.20;;;13.80;99.90;;;;;;4837437;29;20053;-73
2021/01/02 19:08:59;;;;;;;10.68;2.42;;;13.80;99.90;;;;;;4840382;29;20040;-73